• Join FlightAware (Why Join?)
  • Login
  • US Flag 
Rudolph Flight #1: Arrived! 
06:52AM EST


 

Airport Tracker/Info


-or-


 

Live Flight TrackerFlight Track Log ✈ DAL6067 ✈ 13-Sep-2013 ✈ KMEM - KIND

Flight Track Log - Related Links

Times and Time Zones

All times are in EDT time to prevent confusion due to time zone crossing. See the DAL6067 flight status page for this flight to view local times or setup timezone preferences in your user account.

Time Position Orientation Groundspeed Altitude Reporting Facility
EDT Latitude Longitude Course Direction KTS MPH feet Rate Location/Type
09:51AM 35.3774 -89.7048 33° Northeast  Level FlightAware Approximate
09:52AM 35.4669 -89.6332 31° Northeast  Level FlightAware Approximate
09:53AM 35.5589 -89.5663 31° Northeast  Level FlightAware Approximate
09:54AM 35.6509 -89.4994 31° Northeast  Level FlightAware Approximate
09:55AM 35.7428 -89.4322 31° Northeast  Level FlightAware Approximate
09:56AM 35.8347 -89.3648 31° Northeast  Level FlightAware Approximate
09:57AM 35.9265 -89.2973 31° Northeast  Level FlightAware Approximate
09:58AM 36.0183 -89.2297 31° Northeast  Level FlightAware Approximate
09:59AM 36.1101 -89.1619 31° Northeast  Level FlightAware Approximate
10:00AM 36.2018 -89.0939 31° Northeast  Level FlightAware Approximate
10:01AM 36.2925 -89.0241 39° Northeast  Level FlightAware Approximate
10:02AM 36.3841 -88.9574 31° Northeast  Level FlightAware Approximate
10:03AM 36.4752 -88.8879 32° Northeast  Level FlightAware Approximate
10:04AM 36.5662 -88.8183 32° Northeast  Level FlightAware Approximate
10:05AM 36.6572 -88.7485 32° Northeast  Level FlightAware Approximate
10:06AM 36.7482 -88.6786 32° Northeast  Level FlightAware Approximate
10:07AM 36.8392 -88.6084 32° Northeast  Level FlightAware Approximate
10:08AM 36.9301 -88.5381 32° Northeast  Level FlightAware Approximate
10:09AM 37.0209 -88.4677 32° Northeast  Level FlightAware Approximate
10:10AM 37.1117 -88.3970 32° Northeast  Level FlightAware Approximate
10:11AM 37.2025 -88.3262 32° Northeast  Level FlightAware Approximate
10:12AM 37.2933 -88.2553 32° Northeast  Level FlightAware Approximate
10:13AM 37.3829 -88.1820 33° Northeast  Level FlightAware Approximate
10:14AM 37.4723 -88.1083 33° Northeast  Level FlightAware Approximate
10:15AM 37.5617 -88.0345 33° Northeast  Level FlightAware Approximate
10:16AM 37.6519 -87.9621 32° Northeast  Level FlightAware Approximate
10:17AM 37.7423 -87.8899 32° Northeast  Level FlightAware Approximate
10:18AM 37.8326 -87.8176 32° Northeast  Level FlightAware Approximate
10:19AM 37.9230 -87.7455 29° Northeast  Level FlightAware Approximate
10:20AM 38.0161 -87.6788 29° Northeast  Level FlightAware Approximate
10:21AM 38.1091 -87.6119 29° Northeast  Level FlightAware Approximate
10:22AM 38.2021 -87.5449 30° Northeast  Level FlightAware Approximate
10:23AM 38.2951 -87.4777 30° Northeast  Level FlightAware Approximate
10:24AM 38.3880 -87.4103 30° Northeast  Level FlightAware Approximate
10:25AM 38.4808 -87.3428 30° Northeast  Level FlightAware Approximate
10:26AM 38.5756 -87.2798 26° Northeast  Level FlightAware Approximate
10:27AM 38.6690 -87.2143 38° Northeast  Level FlightAware Approximate
10:28AM 38.7599 -87.1426 30° Northeast  Level FlightAware Approximate
10:29AM 38.8520 -87.0731 31° Northeast  Level FlightAware Approximate
10:30AM 38.9439 -87.0029 31° Northeast  Level FlightAware Approximate
10:31AM 39.0358 -86.9326 31° Northeast  Level FlightAware Approximate
10:32AM 39.1300 -86.8684 21° North  Level FlightAware Approximate
10:33AM 39.2250 -86.8062 30° Northeast  Level FlightAware Approximate
10:34AM 39.3083 -86.7334 27° Northeast  Level FlightAware Approximate
10:35AM 39.4012 -86.6657 32° Northeast  Level FlightAware Approximate
10:36AM 39.4922 -86.5930 32° Northeast  Level FlightAware Approximate
10:37AM 39.5839 -86.5219 27° Northeast  Level FlightAware Approximate
10:38AM 39.6789 -86.4585 27° Northeast  Level FlightAware Approximate
10:39AM 39.7698 -86.3937 57° Northeast  Level FlightAware Approximate
10:40AM 39.7481 -86.3148 142° Southeast  Level FlightAware Approximate
10:41AM 39.7167 -86.2833 142° Southeast  Level FlightAware Approximate
10:42AM 39.7173 -86.2947 142° Southeast  Level Estimated
10:43AM 39.7173 -86.2947 142° Southeast  Level Estimated
10:44AM 39.7173 -86.2947 142° Southeast  Level Estimated
10:45AM 39.7173 -86.2947 142° Southeast  Level Estimated
10:46AM 39.7173 -86.2947 142° Southeast  Level Estimated